Flight Track Log - Related Links

Times and Time Zones

All times are in EDT time to prevent confusion due to time zone crossing. See the UPS1121 flight status page for this flight to view local times or setup timezone preferences in your user account.

Time Position Orientation Groundspeed Altitude Reporting Facility
EDT Latitude Longitude Course Direction KTS MPH feet Rate Location/Type
Tue 08:35:44 PM 42.7361 -73.8083 173° South 144 166 1,800  Level Boston Center
Tue 08:36:14 PM 42.7153 -73.8050 173° South 141 162 2,500 2,288 Climbing Boston Center
Tue 08:38:03 PM 42.6456 -73.7047 133° Southeast 243 280 7,100 2,840 Climbing Boston Center
Tue 08:39:03 PM 42.5883 -73.6103 129° Southeast 275 316 10,500 1,846 Climbing Boston Center
Tue 08:40:13 PM 42.5350 -73.5219 129° Southeast 320 368 11,100 298 Climbing Boston Center
Tue 08:41:04 PM 42.4589 -73.4025 131° Southeast 359 413 11,100  Level Boston Center
Tue 08:41:40 PM 42.4178 -73.3428 133° Southeast 354 407 11,100  Level Boston Center
Tue 08:42:14 PM 42.3825 -73.2944 135° Southeast 353 406 11,100  Level Boston Center
Tue 08:42:44 PM 42.3475 -73.2519 138° Southeast 352 405 11,100 -100 Level Boston Center
Tue 08:43:14 PM 42.3167 -73.1981 128° Southeast 353 406 11,000 -300 Descending Boston Center
Tue 08:43:44 PM 42.2919 -73.1444 122° Southeast 343 395 10,800 -700 Descending Boston Center
Tue 08:44:14 PM 42.2819 -73.0883 104° East 335 386 10,300 -1,475 Descending Boston Center
Tue 08:44:45 PM 42.2717 -73.0350 105° East 293 337 9,300 -1,967 Descending Boston Center
Tue 08:45:15 PM 42.2636 -72.9814 101° East 298 343 8,300 -1,875 Descending Boston Center
Tue 08:45:49 PM 42.2472 -72.9225 111° Southeast 288 331 7,300 -1,516 Descending Boston Center
Tue 08:46:50 PM 42.2206 -72.8214 110° East 287 330 5,900 -1,230 Descending Boston Center
Tue 08:47:51 PM 42.1686 -72.7511 135° Southeast 222 255 4,800 -1,140 Descending Boston Center
Tue 08:48:51 PM 42.1314 -72.6947 132° Southeast 199 229 3,600 -898 Descending Boston Center
Tue 08:49:58 PM 42.0897 -72.6358 134° Southeast 199 229 2,900 -656 Descending Boston Center
Tue 08:50:59 PM 42.0503 -72.5883 138° Southeast 181 208 2,200 -443 Descending Boston Center
Tue 08:52:00 PM 42.0106 -72.5911 183° South 129 148 2,000 -443 Descending Boston Center
Tue 08:53:01 PM 41.9875 -72.6217 225° Southwest 107 123 1,300 -639 Descending Boston Center
Tue 08:54:02 PM 41.9647 -72.6522 225° Southwest 106 122 700 -451 Descending Boston Center
Tue 08:55:14 PM 41.9394 -72.6828 222° Southwest 120 138 300 -333 Descending Boston Center
Tue 08:57:00 PM 41.9333 -72.6833 228° Southwest  Level FlightAware
Tue 09:04:00 PM 41.9392 -72.6834 228° Southwest  Level Estimated
Tue 09:05:00 PM 41.9333 -72.6833 228° Southwest  Level FlightAware
Tue 09:06:00 PM 41.9392 -72.6834 228° Southwest  Level Estimated

Login

Don't have an account? Register now (free) for customized features, flight alerts, and more!